Time;durP1;ratioP1;P1;durP2;ratioP2;P2;SDS_P1;SDS_P2;PMS_P1;PMS_P2;Temp;Humidity;BMP_temperature;BMP_pressure;BME280_temperature;BME280_humidity;BME280_pressure;Samples;Min_cycle;Max_cycle;Signal;HPM_P1;HPM_P2
2021/04/16 00:00:21;;;;;;;1999.90;999.90;;;5.10;61.20;;;;;;5054230;28;20557;-72
2021/04/16 00:02:47;;;;;;;1999.90;999.90;;;5.10;61.30;;;;;;5032079;28;20045;-73
2021/04/16 00:05:14;;;;;;;1999.90;999.90;;;5.10;61.20;;;;;;5045525;28;20064;-72
2021/04/16 00:07:41;;;;;;;1999.90;999.90;;;5.10;61.30;;;;;;5057451;28;20400;-72
2021/04/16 00:10:15;;;;;;;1999.90;999.90;;;5.10;61.30;;;;;;5060432;28;20060;-73
2021/04/16 00:12:41;;;;;;;1999.90;999.90;;;5.10;61.20;;;;;;5029900;28;20041;-72
2021/04/16 00:15:11;;;;;;;1999.90;999.90;;;5.10;61.20;;;;;;5052989;28;20090;-73
2021/04/16 00:17:37;;;;;;;1999.90;999.90;;;5.00;61.00;;;;;;5051348;28;20449;-73
2021/04/16 00:20:06;;;;;;;1999.90;999.90;;;5.00;61.00;;;;;;5052190;28;20041;-72
2021/04/16 00:22:34;;;;;;;1999.90;999.90;;;5.00;61.00;;;;;;5032007;28;20049;-72
2021/04/16 00:25:01;;;;;;;1999.90;999.90;;;4.90;60.90;;;;;;5033090;28;20539;-73
2021/04/16 00:27:27;;;;;;;1999.90;999.90;;;4.90;61.00;;;;;;5048347;28;20128;-73
2021/04/16 00:29:53;;;;;;;1999.90;999.90;;;4.80;61.00;;;;;;5026813;28;20044;-73
2021/04/16 00:32:19;;;;;;;1999.90;999.90;;;4.70;61.10;;;;;;5045939;28;20507;-72
2021/04/16 00:34:45;;;;;;;1999.90;999.90;;;4.70;61.40;;;;;;5040247;28;20037;-72
2021/04/16 00:37:11;;;;;;;1999.90;999.90;;;4.60;61.50;;;;;;5056832;28;20415;-72
2021/04/16 00:39:37;;;;;;;1999.90;999.90;;;4.50;61.50;;;;;;5029166;28;20056;-72
2021/04/16 00:42:04;;;;;;;1999.90;999.90;;;4.50;61.70;;;;;;5044723;28;20123;-72
2021/04/16 00:44:31;;;;;;;1999.90;999.90;;;4.40;61.70;;;;;;5034011;28;20044;-73
2021/04/16 00:47:13;;;;;;;1999.90;999.90;;;4.40;61.80;;;;;;5052377;28;20385;-70
2021/04/16 00:49:43;;;;;;;1999.90;999.90;;;4.40;61.90;;;;;;5054035;28;20111;-70
2021/04/16 00:52:12;;;;;;;1999.90;999.90;;;4.40;61.90;;;;;;5046512;28;20049;-70
2021/04/16 00:54:41;;;;;;;1999.90;999.90;;;4.40;62.10;;;;;;5035781;28;20413;-70
2021/04/16 00:57:11;;;;;;;1999.90;999.90;;;4.40;62.10;;;;;;5049141;28;20132;-73
2021/04/16 00:59:47;;;;;;;1999.90;999.90;;;4.40;62.00;;;;;;5048230;28;20139;-73
2021/04/16 01:02:14;;;;;;;1999.90;999.90;;;4.40;61.90;;;;;;5041829;28;20084;-73
2021/04/16 01:04:41;;;;;;;1999.90;999.90;;;4.30;61.90;;;;;;5025396;28;20071;-72
2021/04/16 01:07:09;;;;;;;1999.90;999.90;;;4.30;61.90;;;;;;5029957;28;20060;-72
2021/04/16 01:09:35;;;;;;;1999.90;999.90;;;4.30;62.00;;;;;;5044655;28;20151;-71
2021/04/16 01:12:05;;;;;;;1999.90;999.90;;;4.30;62.00;;;;;;5049835;28;20080;-70
2021/04/16 01:14:33;;;;;;;1999.90;999.90;;;4.30;62.00;;;;;;5045078;28;20467;-70
2021/04/16 01:17:00;;;;;;;1999.90;999.90;;;4.30;62.00;;;;;;5033944;28;20108;-70
2021/04/16 01:19:52;;;;;;;1999.90;999.90;;;4.30;62.00;;;;;;5030819;28;20047;-70
2021/04/16 01:22:28;;;;;;;1999.90;999.90;;;4.30;62.00;;;;;;5030241;28;20037;-70
2021/04/16 01:24:58;;;;;;;1999.90;999.90;;;4.20;62.00;;;;;;5035929;28;20106;-70
2021/04/16 01:27:26;;;;;;;1999.90;999.90;;;4.20;61.90;;;;;;5040498;28;20052;-70
2021/04/16 01:29:52;;;;;;;1999.90;999.90;;;4.20;62.00;;;;;;5051860;28;20505;-70
2021/04/16 01:32:27;;;;;;;1999.90;999.90;;;4.20;61.90;;;;;;5045756;28;20433;-70
2021/04/16 01:34:54;;;;;;;1999.90;999.90;;;4.10;62.00;;;;;;5046426;28;20452;-70
2021/04/16 01:37:22;;;;;;;1999.90;999.90;;;4.10;62.00;;;;;;5045429;28;20127;-71
2021/04/16 01:39:51;;;;;;;1999.90;999.90;;;4.10;62.20;;;;;;5041250;28;20073;-70
2021/04/16 01:42:17;;;;;;;;;;;4.10;62.30;;;;;;5045920;28;20581;-70
2021/04/16 01:44:45;;;;;;;1999.90;999.90;;;4.00;62.80;;;;;;5037390;28;20595;-70
2021/04/16 01:47:13;;;;;;;1999.90;999.90;;;4.00;62.10;;;;;;5054289;28;20057;-70
2021/04/16 01:49:47;;;;;;;1999.90;999.90;;;4.00;62.00;;;;;;5047557;28;20049;-71
2021/04/16 01:52:21;;;;;;;1999.90;999.90;;;4.00;61.90;;;;;;5050449;28;20060;-70
2021/04/16 01:54:50;;;;;;;1999.90;999.90;;;3.90;62.00;;;;;;5027121;28;20128;-70
2021/04/16 01:57:27;;;;;;;1999.90;999.90;;;3.90;62.10;;;;;;5047310;28;20379;-70
2021/04/16 01:59:55;;;;;;;1999.90;999.90;;;3.90;62.10;;;;;;5021529;28;20052;-70
2021/04/16 02:02:27;;;;;;;1999.90;999.90;;;3.80;62.10;;;;;;5055763;28;20128;-70
2021/04/16 02:05:22;;;;;;;1999.90;999.90;;;3.80;62.10;;;;;;5034606;28;20102;-71
2021/04/16 02:07:48;;;;;;;1999.90;999.90;;;3.70;62.10;;;;;;5054462;28;20051;-71
2021/04/16 02:10:15;;;;;;;1999.90;999.90;;;3.70;62.20;;;;;;5033172;28;20049;-70
2021/04/16 02:12:41;;;;;;;1999.90;999.90;;;3.60;62.10;;;;;;5038195;28;20400;-71
2021/04/16 02:15:08;;;;;;;1999.90;999.90;;;3.60;62.10;;;;;;5035835;28;20478;-70
2021/04/16 02:17:35;;;;;;;1999.90;999.90;;;3.60;62.30;;;;;;5046133;28;20067;-70
2021/04/16 02:20:18;;;;;;;1999.90;999.90;;;3.50;62.30;;;;;;5057217;28;20114;-70
2021/04/16 02:22:44;;;;;;;1999.90;999.90;;;3.50;62.30;;;;;;5027976;28;20107;-71
2021/04/16 02:25:12;;;;;;;1999.90;999.90;;;3.50;62.50;;;;;;5046723;28;20060;-70
2021/04/16 02:27:38;;;;;;;1999.90;999.90;;;3.40;62.50;;;;;;5045202;28;20045;-71
2021/04/16 02:30:12;;;;;;;1999.90;999.90;;;3.40;62.60;;;;;;5049740;28;20041;-71
2021/04/16 02:32:38;;;;;;;1999.90;999.90;;;3.40;62.70;;;;;;5050384;28;20055;-70
2021/04/16 02:35:06;;;;;;;1999.90;999.90;;;3.40;62.90;;;;;;5050182;28;20466;-70
2021/04/16 02:37:32;;;;;;;1999.90;999.90;;;3.40;63.00;;;;;;5053296;28;20437;-71
2021/04/16 02:39:59;;;;;;;1999.90;999.90;;;3.40;63.00;;;;;;5024273;28;20640;-70
2021/04/16 02:42:25;;;;;;;1999.90;999.90;;;3.40;63.00;;;;;;5042052;28;20060;-70
2021/04/16 02:44:51;;;;;;;1999.90;999.90;;;3.40;62.90;;;;;;5034897;28;20271;-70
2021/04/16 02:47:17;;;;;;;1999.90;999.90;;;3.40;62.90;;;;;;5037912;28;20144;-70
2021/04/16 02:53:52;;;;;;;1999.90;999.90;;;3.40;63.10;;;;;;5039347;28;20592;-71
2021/04/16 02:56:19;;;;;;;1999.90;999.90;;;3.30;62.90;;;;;;5031167;28;20452;-70
2021/04/16 02:58:45;;;;;;;1999.90;999.90;;;3.30;63.00;;;;;;5043741;28;20037;-70
2021/04/16 03:01:12;;;;;;;1999.90;999.90;;;3.30;62.90;;;;;;5016553;28;20059;-71
2021/04/16 03:03:38;;;;;;;1999.90;999.90;;;3.30;63.00;;;;;;5032158;28;20049;-70
2021/04/16 03:06:05;;;;;;;1999.90;999.90;;;3.30;63.00;;;;;;5021772;28;20060;-71
2021/04/16 03:08:32;;;;;;;1999.90;999.90;;;3.30;63.10;;;;;;5033951;28;20522;-70
2021/04/16 03:11:00;;;;;;;1999.90;999.90;;;3.30;63.30;;;;;;5032128;28;20575;-70
2021/04/16 03:13:26;;;;;;;1999.90;999.90;;;3.30;63.40;;;;;;5047234;28;20392;-70
2021/04/16 03:15:53;;;;;;;1999.90;999.90;;;3.30;63.40;;;;;;5039143;28;20095;-70
2021/04/16 03:18:19;;;;;;;1999.90;999.90;;;3.30;63.40;;;;;;5025059;28;20041;-70
2021/04/16 03:20:46;;;;;;;1999.90;999.90;;;3.20;63.30;;;;;;5039023;28;20046;-70
2021/04/16 03:23:13;;;;;;;1999.90;999.90;;;3.20;63.40;;;;;;5028251;28;20079;-71
2021/04/16 03:25:39;;;;;;;1999.90;999.90;;;3.20;63.50;;;;;;5035293;28;20057;-71
2021/04/16 03:28:06;;;;;;;1999.90;999.90;;;3.20;63.30;;;;;;5040224;28;20053;-71
2021/04/16 03:30:33;;;;;;;1999.90;999.90;;;3.10;63.40;;;;;;5041364;28;20045;-70
2021/04/16 03:32:59;;;;;;;1999.90;999.90;;;3.10;63.40;;;;;;5026357;28;20415;-71
2021/04/16 03:35:26;;;;;;;1999.90;999.90;;;3.10;63.30;;;;;;5018361;28;20048;-70
2021/04/16 03:37:52;;;;;;;1999.90;999.90;;;3.00;63.40;;;;;;5033524;28;20046;-71
2021/04/16 03:40:22;;;;;;;1999.90;999.90;;;3.00;63.30;;;;;;5041451;28;20049;-71
2021/04/16 03:42:49;;;;;;;1999.90;999.90;;;3.00;63.30;;;;;;5034853;28;20073;-70
2021/04/16 03:45:16;;;;;;;1999.90;999.90;;;3.00;63.30;;;;;;5042974;28;20048;-70
2021/04/16 03:47:43;;;;;;;1999.90;999.90;;;2.90;63.10;;;;;;5038423;28;20049;-70
2021/04/16 03:50:13;;;;;;;1999.90;999.90;;;2.90;63.30;;;;;;5049687;28;20056;-70
2021/04/16 03:52:39;;;;;;;1999.90;999.90;;;2.90;63.40;;;;;;5035942;28;20053;-71
2021/04/16 03:55:07;;;;;;;1999.90;999.90;;;2.90;63.40;;;;;;5046960;28;20167;-70
2021/04/16 03:57:33;;;;;;;1999.90;999.90;;;2.80;63.30;;;;;;5049619;28;20519;-70
2021/04/16 04:00:00;;;;;;;1999.90;999.90;;;2.80;63.20;;;;;;5044979;28;20480;-71
2021/04/16 04:02:26;;;;;;;1999.90;999.90;;;2.80;63.40;;;;;;5022594;28;20045;-70
2021/04/16 04:04:52;;;;;;;1999.90;999.90;;;2.80;63.50;;;;;;5055499;28;20118;-70
2021/04/16 04:07:19;;;;;;;1999.90;999.90;;;2.80;63.60;;;;;;5046016;28;20045;-70
2021/04/16 04:09:45;;;;;;;1999.90;999.90;;;2.80;63.60;;;;;;5058045;28;20159;-71
2021/04/16 04:12:12;;;;;;;1999.90;999.90;;;2.80;63.90;;;;;;5045051;28;20049;-70
2021/04/16 04:14:38;;;;;;;1999.90;999.90;;;2.80;64.00;;;;;;5038707;28;20379;-72
2021/04/16 04:17:05;;;;;;;1999.90;999.90;;;2.80;64.10;;;;;;5049215;28;20071;-72
2021/04/16 04:19:34;;;;;;;1999.90;999.90;;;2.80;64.10;;;;;;5055244;28;20127;-71
2021/04/16 04:22:01;;;;;;;1999.90;999.90;;;2.80;64.30;;;;;;5045274;28;20114;-70
2021/04/16 04:24:28;;;;;;;1999.90;999.90;;;2.80;64.30;;;;;;5056562;28;20045;-71
2021/04/16 04:26:55;;;;;;;1999.90;999.90;;;2.80;64.30;;;;;;5052242;28;20460;-71
2021/04/16 04:29:24;;;;;;;1999.90;999.90;;;2.80;64.30;;;;;;5039692;28;20052;-70
2021/04/16 04:31:51;;;;;;;1999.90;999.90;;;2.80;64.40;;;;;;5044274;28;20408;-70
2021/04/16 04:34:28;;;;;;;1999.90;999.90;;;2.80;64.50;;;;;;5038110;28;20079;-70
2021/04/16 04:36:56;;;;;;;1999.90;999.90;;;2.80;64.50;;;;;;5028698;28;20037;-70
2021/04/16 04:39:27;;;;;;;1999.90;999.90;;;2.80;64.50;;;;;;5044943;28;20044;-70
2021/04/16 04:41:53;;;;;;;1999.90;999.90;;;2.80;64.60;;;;;;5050117;28;20503;-70
2021/04/16 04:44:19;;;;;;;1999.90;999.90;;;2.80;64.60;;;;;;5047370;28;20052;-71
2021/04/16 04:46:46;;;;;;;1999.90;999.90;;;2.80;64.70;;;;;;5039220;28;20915;-70
2021/04/16 04:49:16;;;;;;;1999.90;999.90;;;2.80;64.90;;;;;;5051910;28;20088;-71
2021/04/16 04:51:42;;;;;;;1999.90;999.90;;;2.80;65.00;;;;;;5044794;28;20176;-70
2021/04/16 04:54:09;;;;;;;1999.90;999.90;;;2.80;65.00;;;;;;5027501;28;20072;-70
2021/04/16 05:00:24;;;;;;;1999.90;999.90;;;2.80;65.30;;;;;;5035907;28;20975;-71
2021/04/16 05:02:51;;;;;;;1999.90;999.90;;;2.80;65.30;;;;;;5039433;28;20488;-70
2021/04/16 05:05:19;;;;;;;1999.90;999.90;;;2.80;65.30;;;;;;5038774;28;20132;-70
2021/04/16 05:07:45;;;;;;;1999.90;999.90;;;2.80;65.50;;;;;;5053257;28;20071;-71
2021/04/16 05:10:12;;;;;;;1999.90;999.90;;;2.80;65.50;;;;;;5023337;28;20049;-70
2021/04/16 05:12:39;;;;;;;1999.90;999.90;;;2.80;65.60;;;;;;5054622;28;20055;-71
2021/04/16 05:15:07;;;;;;;1999.90;999.90;;;2.90;65.90;;;;;;5019462;28;20465;-71
2021/04/16 05:17:33;;;;;;;1999.90;999.90;;;2.90;65.90;;;;;;5042998;28;20052;-70
2021/04/16 05:19:59;;;;;;;1999.90;999.90;;;2.90;66.20;;;;;;5035862;28;20155;-70
2021/04/16 05:22:26;;;;;;;1999.90;999.90;;;2.90;66.20;;;;;;5031722;28;20037;-71
2021/04/16 05:24:52;;;;;;;1999.90;999.90;;;2.90;66.20;;;;;;5027665;28;20048;-71
2021/04/16 05:27:22;;;;;;;1999.90;999.90;;;3.00;66.40;;;;;;5031052;28;20053;-72
2021/04/16 05:29:48;;;;;;;1999.90;999.90;;;3.00;66.60;;;;;;5051807;28;20131;-71
2021/04/16 05:32:16;;;;;;;1999.90;999.90;;;3.00;66.70;;;;;;5046747;28;20140;-71
2021/04/16 05:34:43;;;;;;;1999.90;999.90;;;3.00;66.70;;;;;;5048824;28;20049;-71
2021/04/16 05:37:09;;;;;;;1999.90;999.90;;;3.00;66.80;;;;;;5039530;28;20136;-71
2021/04/16 05:39:36;;;;;;;1999.90;999.90;;;3.10;67.10;;;;;;5033987;28;20052;-70
2021/04/16 05:42:36;;;;;;;1999.90;999.90;;;3.10;67.10;;;;;;5049151;28;20321;-70
2021/04/16 05:45:04;;;;;;;1999.90;999.90;;;3.20;67.30;;;;;;5033623;28;20049;-71
2021/04/16 05:47:31;;;;;;;1999.90;999.90;;;3.20;67.40;;;;;;5038850;28;20063;-70
2021/04/16 05:49:58;;;;;;;1999.90;999.90;;;3.20;67.70;;;;;;5040397;28;20049;-71
2021/04/16 05:52:25;;;;;;;1999.90;999.90;;;3.30;67.80;;;;;;5023384;28;20429;-72
2021/04/16 05:54:51;;;;;;;1999.90;999.90;;;3.40;68.10;;;;;;5042288;28;20034;-72
2021/04/16 05:57:18;;;;;;;1999.90;999.90;;;3.40;68.20;;;;;;5022642;28;20057;-73
2021/04/16 05:59:45;;;;;;;1999.90;999.90;;;3.50;68.50;;;;;;5042865;28;20045;-72
2021/04/16 06:02:25;;;;;;;1999.90;999.90;;;3.60;68.80;;;;;;5043497;28;20053;-72
2021/04/16 06:04:53;;;;;;;1999.90;999.90;;;3.70;69.20;;;;;;5040597;28;20547;-71
2021/04/16 06:07:22;;;;;;;1999.90;999.90;;;3.80;69.70;;;;;;5020018;28;20095;-70
2021/04/16 06:09:50;;;;;;;1999.90;999.90;;;3.90;69.90;;;;;;5044778;28;20056;-71
2021/04/16 06:12:17;;;;;;;1999.90;999.90;;;4.10;70.20;;;;;;5045588;28;20408;-71
2021/04/16 06:14:43;;;;;;;1999.90;999.90;;;4.20;70.40;;;;;;5039524;28;20047;-71
2021/04/16 06:17:12;;;;;;;1999.90;999.90;;;4.30;70.70;;;;;;5044234;28;20506;-71
2021/04/16 06:19:39;;;;;;;;;;;4.40;70.90;;;;;;5036192;28;20124;-70
2021/04/16 06:22:05;;;;;;;1999.90;999.90;;;4.60;71.90;;;;;;5048899;28;19935;-70
2021/04/16 06:24:32;;;;;;;1999.90;999.90;;;4.70;71.60;;;;;;5027374;28;20045;-71
2021/04/16 06:26:58;;;;;;;1999.90;999.90;;;4.80;71.60;;;;;;5041603;28;20166;-71
2021/04/16 06:29:28;;;;;;;1999.90;999.90;;;5.00;72.60;;;;;;5055446;28;20052;-70
2021/04/16 06:31:55;;;;;;;1999.90;999.90;;;5.10;72.40;;;;;;5024613;28;20437;-70
2021/04/16 06:34:21;;;;;;;1999.90;999.90;;;5.20;72.40;;;;;;5032485;28;20317;-72
2021/04/16 06:36:49;;;;;;;1999.90;999.90;;;5.40;72.70;;;;;;5048362;28;20048;-71
2021/04/16 06:39:16;;;;;;;1999.90;999.90;;;5.50;72.90;;;;;;5051015;28;20045;-71
2021/04/16 06:41:46;;;;;;;1999.90;999.90;;;5.70;73.50;;;;;;5026876;28;20041;-70
2021/04/16 06:44:33;;;;;;;1999.90;999.90;;;5.80;74.30;;;;;;5044274;28;20060;-71
2021/04/16 06:47:06;;;;;;;1999.90;999.90;;;5.90;73.80;;;;;;5032271;28;20133;-71
2021/04/16 06:49:34;;;;;;;1999.90;999.90;;;6.10;74.20;;;;;;5023663;28;20448;-71
2021/04/16 06:52:07;;;;;;;1999.90;999.90;;;6.20;74.30;;;;;;5035977;28;20124;-71
2021/04/16 06:54:56;;;;;;;1999.90;999.90;;;6.30;74.50;;;;;;5046923;28;20056;-71
2021/04/16 06:57:54;;;;;;;1999.90;999.90;;;6.50;75.00;;;;;;5041743;28;20057;-72
2021/04/16 07:00:46;;;;;;;1999.90;999.90;;;6.60;75.20;;;;;;5044104;28;20207;-71
2021/04/16 07:03:26;;;;;;;1999.90;999.90;;;6.80;75.50;;;;;;5048136;28;20141;-71
2021/04/16 07:06:01;;;;;;;1999.90;999.90;;;7.00;75.90;;;;;;5039537;28;20048;-71
2021/04/16 07:08:54;;;;;;;1999.90;999.90;;;7.10;75.90;;;;;;5047660;28;20049;-73
2021/04/16 07:11:28;;;;;;;1999.90;999.90;;;7.20;75.90;;;;;;5045713;28;20076;-72
2021/04/16 07:13:57;;;;;;;1999.90;999.90;;;7.40;76.20;;;;;;5044953;28;20048;-70
2021/04/16 07:16:24;;;;;;;1999.90;999.90;;;7.50;76.50;;;;;;5024008;28;20045;-70
2021/04/16 07:19:01;;;;;;;1999.90;999.90;;;7.60;76.60;;;;;;5038419;28;20052;-71
2021/04/16 07:21:27;;;;;;;1999.90;999.90;;;7.70;76.90;;;;;;5046364;28;20059;-70
2021/04/16 07:23:58;;;;;;;1999.90;999.90;;;7.80;77.00;;;;;;5046146;28;20044;-71
2021/04/16 07:26:46;;;;;;;1999.90;999.90;;;8.00;77.20;;;;;;5043785;28;20048;-70
2021/04/16 07:29:44;;;;;;;1999.90;999.90;;;8.10;77.10;;;;;;5040766;28;20053;-70
2021/04/16 07:32:29;;;;;;;1999.90;999.90;;;8.20;78.00;;;;;;5051515;28;20804;-72
2021/04/16 07:35:15;;;;;;;1999.90;999.90;;;8.30;77.60;;;;;;5044256;28;20047;-70
2021/04/16 07:37:45;;;;;;;1999.90;999.90;;;8.40;77.70;;;;;;5022741;28;20475;-71
2021/04/16 07:40:21;;;;;;;1999.90;999.90;;;8.50;77.60;;;;;;5042791;28;20048;-71
2021/04/16 07:42:50;;;;;;;1999.90;999.90;;;8.60;77.70;;;;;;5043574;28;20045;-71
2021/04/16 07:45:25;;;;;;;1999.90;999.90;;;8.70;77.70;;;;;;5045698;28;20080;-71
2021/04/16 07:48:20;;;;;;;1999.90;999.90;;;8.80;77.70;;;;;;5022762;28;20048;-71
2021/04/16 07:50:53;;;;;;;1999.90;999.90;;;8.90;78.00;;;;;;5046098;28;20045;-72
2021/04/16 07:53:40;;;;;;;1999.90;999.90;;;9.00;78.10;;;;;;5055822;28;20469;-72
2021/04/16 07:56:26;;;;;;;1999.90;999.90;;;9.10;78.10;;;;;;5052374;28;20489;-72
2021/04/16 07:59:02;;;;;;;1999.90;999.90;;;9.30;78.30;;;;;;5020836;28;20080;-71
2021/04/16 08:01:32;;;;;;;1999.90;999.90;;;9.30;78.60;;;;;;5044585;28;20057;-72
2021/04/16 08:04:24;;;;;;;1999.90;999.90;;;9.40;78.40;;;;;;5036587;28;20123;-71
2021/04/16 08:06:53;;;;;;;1999.90;999.90;;;9.60;78.60;;;;;;5043871;28;20457;-72
2021/04/16 08:09:25;;;;;;;1999.90;999.90;;;9.60;78.30;;;;;;5058749;28;20128;-71
2021/04/16 08:12:00;;;;;;;1999.90;999.90;;;9.70;78.40;;;;;;5043096;28;20047;-71
2021/04/16 08:14:31;;;;;;;1999.90;999.90;;;9.70;78.60;;;;;;5056455;28;20045;-72
2021/04/16 08:17:25;;;;;;;1999.90;999.90;;;9.80;78.70;;;;;;5032843;28;20465;-71
2021/04/16 08:19:52;;;;;;;1999.90;999.90;;;9.90;78.80;;;;;;5050991;28;20057;-71
2021/04/16 08:22:33;;;;;;;1999.90;999.90;;;10.00;77.60;;;;;;5041272;28;20488;-71
2021/04/16 08:25:08;;;;;;;1999.90;999.90;;;10.10;77.70;;;;;;5052483;28;20044;-71
2021/04/16 08:27:49;;;;;;;1999.90;999.90;;;10.20;77.80;;;;;;5056460;28;20131;-72
2021/04/16 08:30:33;;;;;;;1999.90;999.90;;;10.30;77.70;;;;;;5033339;28;20052;-71
2021/04/16 08:33:21;;;;;;;1999.90;999.90;;;10.40;77.70;;;;;;5054659;28;20602;-71
2021/04/16 08:36:20;;;;;;;1999.90;999.90;;;10.60;77.80;;;;;;5045490;28;20104;-71
2021/04/16 08:39:10;;;;;;;1999.90;999.90;;;10.70;77.60;;;;;;5025859;28;20049;-71
2021/04/16 08:41:56;;;;;;;1999.90;999.90;;;10.80;77.40;;;;;;5050391;28;20053;-70
2021/04/16 08:44:24;;;;;;;1999.90;999.90;;;10.90;77.40;;;;;;5046922;28;20041;-71
2021/04/16 08:46:53;;;;;;;1999.90;999.90;;;11.00;77.50;;;;;;5051520;28;20071;-70
2021/04/16 08:49:23;;;;;;;;;;;11.10;77.30;;;;;;5052766;28;20535;-71
2021/04/16 08:51:59;;;;;;;1999.90;999.90;;;11.20;77.50;;;;;;5046506;28;19931;-70
2021/04/16 08:54:32;;;;;;;1999.90;999.90;;;11.30;77.40;;;;;;5036265;28;20538;-71
2021/04/16 08:57:19;;;;;;;1999.90;999.90;;;11.40;77.00;;;;;;5053786;28;20051;-70
2021/04/16 09:00:07;;;;;;;1999.90;999.90;;;11.50;76.60;;;;;;5043439;28;20047;-71
2021/04/16 09:02:44;;;;;;;1999.90;999.90;;;11.60;76.80;;;;;;5047646;28;20055;-72
2021/04/16 09:05:29;;;;;;;1999.90;999.90;;;11.70;76.80;;;;;;5047899;28;20049;-71
2021/04/16 09:08:06;;;;;;;1999.90;999.90;;;11.80;76.70;;;;;;5067079;28;20126;-71
2021/04/16 09:10:50;;;;;;;1999.90;999.90;;;11.90;75.80;;;;;;5061281;28;20083;-71
2021/04/16 09:13:38;;;;;;;1999.90;999.90;;;12.00;76.10;;;;;;5046628;28;20063;-71
2021/04/16 09:16:39;;;;;;;1999.90;999.90;;;12.10;75.80;;;;;;5046151;28;20519;-71
2021/04/16 09:19:28;;;;;;;1999.90;999.90;;;12.20;76.00;;;;;;5043657;28;20081;-72
2021/04/16 09:22:04;;;;;;;1999.90;999.90;;;12.20;75.50;;;;;;5051101;28;20131;-71
2021/04/16 09:24:53;;;;;;;1999.90;999.90;;;12.30;75.10;;;;;;5054365;28;20130;-71
2021/04/16 09:27:25;;;;;;;1999.90;999.90;;;12.40;75.50;;;;;;5051619;28;20156;-71
2021/04/16 09:30:13;;;;;;;1999.90;999.90;;;12.60;76.00;;;;;;5040431;28;20052;-71
2021/04/16 09:32:45;;;;;;;1999.90;999.90;;;12.70;74.60;;;;;;5023176;28;20420;-71
2021/04/16 09:35:12;;;;;;;1999.90;999.90;;;12.80;75.30;;;;;;5044882;28;20045;-71
2021/04/16 09:37:42;;;;;;;1999.90;999.90;;;12.90;74.70;;;;;;5047244;28;20443;-71
2021/04/16 09:40:18;;;;;;;1999.90;999.90;;;12.90;75.00;;;;;;5054364;28;20076;-71
2021/04/16 09:42:54;;;;;;;1999.90;999.90;;;13.00;74.90;;;;;;5051303;28;20403;-72
2021/04/16 09:45:32;;;;;;;1999.90;999.90;;;13.10;75.20;;;;;;5029795;28;20131;-71
2021/04/16 09:48:21;;;;;;;1999.90;999.90;;;13.20;75.00;;;;;;5055456;28;20107;-72
2021/04/16 09:51:09;;;;;;;1999.90;999.90;;;13.40;75.10;;;;;;5037809;28;20130;-72
2021/04/16 09:53:37;;;;;;;1999.90;999.90;;;13.50;75.20;;;;;;5059642;28;20045;-71
2021/04/16 09:56:15;;;;;;;1999.90;999.90;;;13.60;74.80;;;;;;5041005;28;20444;-72
2021/04/16 09:58:59;;;;;;;1999.90;999.90;;;13.70;75.00;;;;;;5046844;28;20132;-72
2021/04/16 10:01:26;;;;;;;1999.90;999.90;;;13.80;74.90;;;;;;5061419;28;20045;-72
2021/04/16 10:04:00;;;;;;;1999.90;999.90;;;13.90;74.00;;;;;;5034325;28;20484;-72
2021/04/16 10:06:32;;;;;;;1999.90;999.90;;;14.00;74.60;;;;;;5052037;28;20063;-71
2021/04/16 10:09:16;;;;;;;1999.90;999.90;;;14.00;74.50;;;;;;5021341;28;20407;-71
2021/04/16 10:12:00;;;;;;;1999.90;999.90;;;14.20;73.90;;;;;;5044469;28;20132;-71
2021/04/16 10:14:37;;;;;;;1999.90;999.90;;;14.20;73.90;;;;;;5036904;28;20493;-71
2021/04/16 10:17:16;;;;;;;1999.90;999.90;;;14.30;73.60;;;;;;5052390;28;20128;-71
2021/04/16 10:19:48;;;;;;;1999.90;999.90;;;14.40;73.00;;;;;;5042883;28;20548;-71
2021/04/16 10:22:23;;;;;;;1999.90;999.90;;;14.50;72.10;;;;;;5029973;28;20206;-72
2021/04/16 10:54:51;;;;;;;1999.90;999.90;;;16.60;89.50;;;;;;5042659;28;20128;-72
2021/04/16 11:17:36;;;;;;;1999.90;999.90;;;17.10;90.20;;;;;;5050581;28;20056;-72
2021/04/16 11:45:21;;;;;;;1999.90;999.90;;;17.40;84.50;;;;;;5047645;28;20128;-71
2021/04/16 11:51:36;;;;;;;1999.90;999.90;;;17.60;86.40;;;;;;5059429;28;20494;-72
2021/04/16 12:38:50;;;;;;;1999.90;999.90;;;17.70;70.30;;;;;;4952257;28;20047;-71
2021/04/16 12:41:37;;;;;;;1999.90;999.90;;;17.50;68.50;;;;;;4977674;28;20079;-70
2021/04/16 12:44:05;;;;;;;1999.90;999.90;;;17.40;67.40;;;;;;5045694;28;20390;-70
2021/04/16 12:46:38;;;;;;;1999.90;999.90;;;17.40;67.10;;;;;;5044162;28;20429;-70
2021/04/16 12:49:06;;;;;;;1999.90;999.90;;;17.30;66.70;;;;;;5046618;28;20067;-71
2021/04/16 12:51:32;;;;;;;1999.90;999.90;;;17.40;66.00;;;;;;5049119;28;20046;-71
2021/04/16 12:53:58;;;;;;;1999.90;999.90;;;17.50;65.20;;;;;;5050827;28;20084;-71
2021/04/16 12:56:40;;;;;;;1999.90;999.90;;;17.60;64.40;;;;;;5042502;28;20038;-70
2021/04/16 12:59:15;;;;;;;1999.90;999.90;;;17.60;63.80;;;;;;5066360;28;20412;-71
2021/04/16 13:01:44;;;;;;;1999.90;999.90;;;17.50;62.60;;;;;;5051418;28;20041;-71
2021/04/16 13:04:12;;;;;;;1999.90;999.90;;;17.50;63.10;;;;;;5052852;28;20130;-71
2021/04/16 13:06:42;;;;;;;1999.90;999.90;;;17.50;63.60;;;;;;5047965;28;20048;-71
2021/04/16 13:09:11;;;;;;;1999.90;999.90;;;17.60;63.80;;;;;;5034444;28;20071;-71
2021/04/16 13:11:37;;;;;;;1999.90;999.90;;;17.60;62.20;;;;;;5042692;28;20135;-72
2021/04/16 13:14:04;;;;;;;1999.90;999.90;;;17.70;63.90;;;;;;5041778;28;20041;-71
2021/04/16 13:16:31;;;;;;;1999.90;999.90;;;17.80;63.60;;;;;;5047192;28;20391;-72
2021/04/16 13:19:02;;;;;;;1999.90;999.90;;;17.80;63.30;;;;;;5046740;28;20413;-71
2021/04/16 13:21:38;;;;;;;1999.90;999.90;;;17.80;63.00;;;;;;5039829;28;20124;-71
2021/04/16 13:24:06;;;;;;;1999.90;999.90;;;17.70;63.60;;;;;;5053065;28;20037;-71
2021/04/16 13:26:34;;;;;;;1999.90;999.90;;;17.80;62.20;;;;;;5058691;28;20100;-70
2021/04/16 13:29:01;;;;;;;1999.90;999.90;;;17.70;61.70;;;;;;5058147;28;20463;-71
2021/04/16 13:31:32;;;;;;;1999.90;999.90;;;17.80;61.40;;;;;;5061466;28;20051;-71
2021/04/16 13:34:02;;;;;;;1999.90;999.90;;;17.80;61.70;;;;;;5042770;28;20401;-71
2021/04/16 13:36:31;;;;;;;1999.90;999.90;;;17.90;61.50;;;;;;5018832;28;20405;-71
2021/04/16 13:38:58;;;;;;;1999.90;999.90;;;17.90;60.90;;;;;;5043127;28;20496;-71
2021/04/16 13:41:25;;;;;;;1999.90;999.90;;;17.90;60.90;;;;;;5045391;28;20053;-71
2021/04/16 13:43:53;;;;;;;1999.90;999.90;;;17.70;61.00;;;;;;5041648;28;20124;-72
2021/04/16 13:46:23;;;;;;;1999.90;999.90;;;17.70;61.70;;;;;;5041847;28;20049;-71
2021/04/16 13:48:50;;;;;;;1999.90;999.90;;;17.70;62.00;;;;;;5042597;28;20080;-71
2021/04/16 13:51:19;;;;;;;1999.90;999.90;;;17.70;61.60;;;;;;5024398;28;20050;-71
2021/04/16 13:53:45;;;;;;;1999.90;999.90;;;17.70;62.00;;;;;;5041955;28;20159;-71
2021/04/16 13:56:11;;;;;;;1999.90;999.90;;;18.00;63.10;;;;;;5048228;28;20051;-71
2021/04/16 13:58:38;;;;;;;1999.90;999.90;;;18.40;65.60;;;;;;5047096;28;20041;-71
2021/04/16 14:01:07;;;;;;;1999.90;999.90;;;18.60;65.30;;;;;;5050371;28;20384;-71
2021/04/16 14:03:37;;;;;;;1999.90;999.90;;;18.60;65.30;;;;;;5051149;28;20096;-72
2021/04/16 14:06:11;;;;;;;1999.90;999.90;;;18.30;64.50;;;;;;5053215;28;20084;-71
2021/04/16 14:08:41;;;;;;;1999.90;999.90;;;17.90;63.40;;;;;;5045717;28;20059;-71
2021/04/16 14:11:08;;;;;;;1999.90;999.90;;;17.50;61.90;;;;;;5051368;28;20067;-72
2021/04/16 14:13:35;;;;;;;1999.90;999.90;;;17.30;61.90;;;;;;5050719;28;20056;-71
2021/04/16 14:16:06;;;;;;;1999.90;999.90;;;17.50;63.60;;;;;;5045700;28;20036;-71
2021/04/16 14:18:43;;;;;;;1999.90;999.90;;;17.90;64.10;;;;;;5045398;28;20044;-71
2021/04/16 14:21:16;;;;;;;1999.90;999.90;;;18.10;61.50;;;;;;5028975;28;20076;-72
2021/04/16 14:23:43;;;;;;;1999.90;999.90;;;18.10;64.50;;;;;;5039722;28;20052;-72
2021/04/16 14:26:09;;;;;;;1999.90;999.90;;;18.20;65.70;;;;;;5034452;28;20063;-71
2021/04/16 14:28:37;;;;;;;1999.90;999.90;;;18.60;66.70;;;;;;5054713;28;20045;-71
2021/04/16 14:31:05;;;;;;;1999.90;999.90;;;18.70;66.10;;;;;;5045253;28;20049;-71
2021/04/16 14:33:35;;;;;;;1999.90;999.90;;;18.60;65.20;;;;;;5051638;28;20048;-71
2021/04/16 14:36:21;;;;;;;1999.90;999.90;;;18.70;66.10;;;;;;5054917;28;20365;-71
2021/04/16 14:38:47;;;;;;;1999.90;999.90;;;19.00;65.90;;;;;;5054926;28;20076;-71